createdAt,value
2022-08-10T00:00:37.864Z,1.45
2022-08-10T00:03:07.787Z,1.67
2022-08-10T00:05:43.152Z,1.30
2022-08-10T00:08:11.157Z,1.70
2022-08-10T00:10:49.765Z,1.55
2022-08-10T00:13:16.760Z,1.60
2022-08-10T00:15:51.842Z,1.40
2022-08-10T00:18:35.196Z,1.40
2022-08-10T00:21:05.580Z,1.52
2022-08-10T00:23:33.286Z,1.42
2022-08-10T00:26:00.575Z,1.30
2022-08-10T00:28:27.648Z,1.40
2022-08-10T00:30:54.695Z,1.35
2022-08-10T00:33:22.114Z,1.60
2022-08-10T00:35:49.507Z,1.50
2022-08-10T00:38:16.502Z,1.60
2022-08-10T00:40:43.687Z,1.60
2022-08-10T00:43:10.709Z,1.52
2022-08-10T00:45:37.711Z,1.30
2022-08-10T00:48:04.852Z,1.95
2022-08-10T00:50:31.948Z,1.50
2022-08-10T00:52:59.333Z,1.42
2022-08-10T00:55:26.924Z,1.40
2022-08-10T00:57:55.603Z,1.40
2022-08-10T01:00:23.943Z,1.40
2022-08-10T01:02:51.669Z,1.38
2022-08-10T01:05:20.478Z,1.48
2022-08-10T01:07:58.560Z,1.35
2022-08-10T01:10:33.691Z,1.42
2022-08-10T01:13:21.861Z,1.50
2022-08-10T01:15:48.907Z,1.42
2022-08-10T01:18:28.390Z,1.50
2022-08-10T01:21:18.059Z,1.50
2022-08-10T01:24:20.037Z,1.50
2022-08-10T01:27:19.306Z,1.50
2022-08-10T01:30:02.310Z,1.48
2022-08-10T01:32:40.906Z,1.50
2022-08-10T01:35:44.666Z,1.60
2022-08-10T01:38:17.144Z,1.60
2022-08-10T01:40:54.584Z,1.50
2022-08-10T01:43:23.619Z,1.60
2022-08-10T01:45:55.747Z,1.40
2022-08-10T01:48:32.881Z,1.35
2022-08-10T01:51:17.666Z,1.60
2022-08-10T01:56:23.074Z,1.60
2022-08-10T01:58:56.975Z,1.80
2022-08-10T02:01:27.701Z,1.73
2022-08-10T02:04:05.463Z,1.38
2022-08-10T02:06:44.619Z,1.52
2022-08-10T02:09:19.865Z,1.50
2022-08-10T02:11:55.704Z,1.45
2022-08-10T02:14:48.106Z,1.33
2022-08-10T02:17:58.211Z,1.58
2022-08-10T02:20:11.219Z,1.65
2022-08-10T02:22:39.808Z,1.58
2022-08-10T02:25:09.096Z,1.45
2022-08-10T02:27:38.651Z,1.30
2022-08-10T02:30:07.135Z,1.38
2022-08-10T02:32:37.940Z,1.60
2022-08-10T02:35:19.385Z,1.30
2022-08-10T02:37:53.096Z,1.52
2022-08-10T02:42:18.288Z,1.75
2022-08-10T02:45:27.247Z,1.40
2022-08-10T02:46:26.891Z,1.52
2022-08-10T02:49:03.255Z,1.50
2022-08-10T02:52:06.813Z,1.67
2022-08-10T02:57:19.189Z,1.63
2022-08-10T02:59:50.548Z,1.50
2022-08-10T03:02:29.348Z,1.58
2022-08-10T03:05:03.198Z,1.80
2022-08-10T03:07:42.908Z,1.98
2022-08-10T03:10:16.652Z,2.80
2022-08-10T03:12:45.691Z,2.03
2022-08-10T03:15:15.516Z,1.60
2022-08-10T03:17:57.707Z,1.80
2022-08-10T03:20:36.611Z,1.60
2022-08-10T03:23:12.918Z,1.83
2022-08-10T03:25:40.615Z,1.60
2022-08-10T03:28:10.774Z,1.60
2022-08-10T03:30:45.544Z,1.85
2022-08-10T03:33:13.919Z,1.70
2022-08-10T03:35:41.175Z,1.80
2022-08-10T03:38:08.177Z,1.52
2022-08-10T03:40:45.538Z,2.05
2022-08-10T03:43:19.327Z,1.77
2022-08-10T03:45:54.672Z,1.90
2022-08-10T03:48:24.471Z,1.70
2022-08-10T03:51:01.507Z,1.85
2022-08-10T03:54:06.155Z,1.88
2022-08-10T03:56:30.546Z,1.55
2022-08-10T03:58:58.739Z,1.67
2022-08-10T04:02:43.146Z,1.80
2022-08-10T04:04:19.206Z,1.85
2022-08-10T04:06:54.619Z,2.25
2022-08-10T04:09:55.930Z,1.75
2022-08-10T04:12:17.230Z,1.80
2022-08-10T04:14:50.982Z,1.90
2022-08-10T04:18:05.221Z,1.92
2022-08-10T04:20:35.002Z,1.75
2022-08-10T04:23:07.799Z,1.90
2022-08-10T04:25:35.783Z,1.70
2022-08-10T04:28:03.688Z,1.83
2022-08-10T04:30:32.773Z,1.80
2022-08-10T04:33:02.367Z,1.83
2022-08-10T04:35:30.358Z,1.80
2022-08-10T04:37:59.534Z,2.08
2022-08-10T04:40:29.709Z,3.05
2022-08-10T04:43:02.126Z,2.25
2022-08-10T04:45:49.717Z,1.80
2022-08-10T04:48:42.206Z,1.90
2022-08-10T04:51:19.204Z,1.80
2022-08-10T04:54:04.022Z,2.05
2022-08-10T04:56:34.456Z,2.05
2022-08-10T04:59:01.446Z,2.05
2022-08-10T05:02:09.932Z,1.90
2022-08-10T05:04:36.023Z,1.83
2022-08-10T05:07:05.434Z,1.67
2022-08-10T05:09:32.488Z,1.83
2022-08-10T05:11:59.492Z,2.00
2022-08-10T05:14:26.545Z,1.80
2022-08-10T05:16:53.458Z,2.00
2022-08-10T05:20:02.033Z,1.95
2022-08-10T05:22:07.379Z,1.98
2022-08-10T05:24:34.308Z,1.98
2022-08-10T05:27:09.522Z,1.90
2022-08-10T05:29:37.925Z,1.88
2022-08-10T05:32:05.466Z,2.00
2022-08-10T05:34:32.407Z,2.47
2022-08-10T05:37:00.256Z,1.92
2022-08-10T05:39:30.336Z,1.80
2022-08-10T05:42:01.902Z,1.85
2022-08-10T05:44:29.893Z,1.80
2022-08-10T05:46:57.307Z,1.90
2022-08-10T05:49:25.077Z,1.83
2022-08-10T05:51:52.674Z,1.70
2022-08-10T05:54:20.184Z,1.80
2022-08-10T05:56:56.807Z,2.05
2022-08-10T06:00:11.182Z,1.83
2022-08-10T06:02:34.929Z,1.90
2022-08-10T06:05:13.730Z,1.73
2022-08-10T06:07:46.721Z,1.85
2022-08-10T06:10:19.642Z,1.90
2022-08-10T06:13:30.280Z,1.90
2022-08-10T06:16:02.596Z,2.05
2022-08-10T06:18:30.155Z,2.03
2022-08-10T06:20:58.139Z,1.80
2022-08-10T06:23:28.374Z,1.70
2022-08-10T06:26:10.293Z,1.63
2022-08-10T06:28:58.222Z,1.60
2022-08-10T06:31:46.715Z,1.50
2022-08-10T06:34:15.604Z,1.60
2022-08-10T06:36:44.589Z,1.60
2022-08-10T06:39:32.536Z,1.60
2022-08-10T06:42:18.327Z,1.58
2022-08-10T06:44:59.496Z,1.60
2022-08-10T06:47:41.818Z,1.60
2022-08-10T06:50:34.866Z,1.60
2022-08-10T06:53:22.121Z,1.75
2022-08-10T06:55:56.446Z,1.60
2022-08-10T06:58:36.876Z,2.60
2022-08-10T07:01:09.066Z,1.30
2022-08-10T07:03:42.748Z,1.42
2022-08-10T07:06:13.959Z,1.30
2022-08-10T07:08:41.888Z,1.50
2022-08-10T07:11:12.206Z,1.20
2022-08-10T07:14:16.247Z,1.40
2022-08-10T07:16:30.267Z,1.52
2022-08-10T07:19:00.389Z,1.40
2022-08-10T07:21:29.851Z,1.50
2022-08-10T07:24:00.786Z,1.42
2022-08-10T07:26:31.271Z,1.30
2022-08-10T07:28:59.336Z,1.52
2022-08-10T07:31:54.377Z,1.25
2022-08-10T07:34:29.489Z,1.60
2022-08-10T07:37:02.363Z,1.50
2022-08-10T07:40:03.821Z,1.40
2022-08-10T07:42:23.309Z,1.58
2022-08-10T07:44:51.364Z,1.25
2022-08-10T07:47:46.114Z,1.30
2022-08-10T07:50:12.904Z,1.52
2022-08-10T07:52:40.439Z,1.30
2022-08-10T07:55:10.384Z,1.40
2022-08-10T07:57:40.272Z,1.13
2022-08-10T08:00:11.049Z,1.10
2022-08-10T08:02:57.658Z,1.40
2022-08-10T08:05:58.988Z,1.30
2022-08-10T08:08:20.040Z,1.50
2022-08-10T08:10:49.191Z,1.42
2022-08-10T08:13:17.671Z,1.38
2022-08-10T08:16:18.526Z,1.60
2022-08-10T08:18:36.963Z,2.65
2022-08-10T08:21:16.030Z,1.33
2022-08-10T08:24:30.561Z,1.40
2022-08-10T08:26:41.537Z,1.20
2022-08-10T08:29:13.761Z,1.40
2022-08-10T08:32:01.792Z,1.45
2022-08-10T08:34:31.670Z,1.13
2022-08-10T08:37:00.920Z,1.25
2022-08-10T08:39:28.609Z,1.50
2022-08-10T08:42:15.588Z,1.30
2022-08-10T08:44:49.759Z,1.08
2022-08-10T08:48:04.688Z,1.20
2022-08-10T08:50:59.516Z,1.20
2022-08-10T08:54:01.613Z,1.35
2022-08-10T08:56:39.748Z,1.30
2022-08-10T08:59:42.423Z,1.23
2022-08-10T09:02:54.454Z,1.38
2022-08-10T09:05:58.661Z,1.50
2022-08-10T09:08:59.851Z,0.90
2022-08-10T09:11:45.752Z,0.90
2022-08-10T09:14:37.223Z,1.35
2022-08-10T09:17:27.557Z,1.17
2022-08-10T09:20:07.347Z,1.60
2022-08-10T09:22:51.683Z,1.20
2022-08-10T09:27:56.010Z,1.10
2022-08-10T09:30:35.711Z,0.98
2022-08-10T09:36:19.798Z,0.90
2022-08-10T09:36:42.102Z,1.10
2022-08-10T09:40:56.231Z,1.20
2022-08-10T09:42:49.768Z,1.00
2022-08-10T09:45:44.539Z,0.90
2022-08-10T09:48:35.168Z,0.80
2022-08-10T09:51:44.668Z,0.95
2022-08-10T09:54:27.631Z,1.30
2022-08-10T09:57:55.258Z,0.90
2022-08-10T10:00:14.860Z,0.95
2022-08-10T10:03:00.339Z,1.00
2022-08-10T10:05:51.942Z,1.35
2022-08-10T10:08:25.087Z,1.00
2022-08-10T10:11:03.334Z,0.95
2022-08-10T10:14:04.366Z,1.05
2022-08-10T10:16:43.905Z,1.15
2022-08-10T10:19:17.424Z,0.90
2022-08-10T10:21:54.639Z,1.10
2022-08-10T10:24:51.163Z,1.08
2022-08-10T10:27:58.194Z,0.93
2022-08-10T10:30:32.113Z,0.90
2022-08-10T10:33:13.249Z,1.10
2022-08-10T10:35:52.170Z,1.13
2022-08-10T10:38:21.619Z,1.00
2022-08-10T10:41:01.486Z,1.00
2022-08-10T10:43:31.347Z,1.17
2022-08-10T10:46:12.635Z,0.85
2022-08-10T10:49:11.557Z,1.00
2022-08-10T10:51:44.824Z,1.00
2022-08-10T10:54:44.999Z,1.02
2022-08-10T10:57:11.782Z,0.98
2022-08-10T11:00:02.378Z,0.90
2022-08-10T11:02:41.437Z,1.08
2022-08-10T11:05:24.345Z,1.10
2022-08-10T11:08:01.640Z,1.00
2022-08-10T11:10:47.677Z,0.95
2022-08-10T11:14:27.235Z,0.90
2022-08-10T11:16:35.879Z,0.90
2022-08-10T11:19:26.342Z,1.25
2022-08-10T11:22:24.880Z,0.80
2022-08-10T11:25:11.694Z,0.90
2022-08-10T11:27:56.627Z,0.98
2022-08-10T11:30:36.456Z,0.90
2022-08-10T11:33:30.843Z,0.73
2022-08-10T11:36:04.129Z,0.93
2022-08-10T11:38:47.161Z,0.95
2022-08-10T11:42:10.195Z,0.90
2022-08-10T11:44:36.603Z,0.93
2022-08-10T11:47:11.040Z,0.98
2022-08-10T11:50:01.899Z,0.90
2022-08-10T11:52:44.772Z,0.90
2022-08-10T11:55:18.888Z,0.77
2022-08-10T11:57:54.150Z,0.70
2022-08-10T12:00:25.290Z,0.90
2022-08-10T12:03:04.788Z,0.80
2022-08-10T12:05:54.448Z,0.85
2022-08-10T12:10:07.123Z,1.45
2022-08-10T12:11:24.624Z,1.00
2022-08-10T12:14:22.625Z,0.80
2022-08-10T12:17:02.019Z,0.90
2022-08-10T12:19:59.364Z,1.02
2022-08-10T12:22:34.245Z,1.10
2022-08-10T12:25:09.345Z,0.90
2022-08-10T12:27:48.315Z,0.90
2022-08-10T12:30:17.132Z,0.95
2022-08-10T12:33:03.296Z,1.10
2022-08-10T12:35:56.036Z,0.90
2022-08-10T12:38:51.992Z,0.80
2022-08-10T12:41:44.892Z,0.90
2022-08-10T12:44:22.405Z,0.93
2022-08-10T12:47:11.818Z,0.90
2022-08-10T12:50:21.638Z,1.00
2022-08-10T12:52:50.170Z,0.95
2022-08-10T12:55:21.669Z,0.88
2022-08-10T12:57:53.910Z,0.93
2022-08-10T13:00:32.738Z,0.80
2022-08-10T13:03:02.073Z,0.88
2022-08-10T13:06:02.587Z,1.00
2022-08-10T13:08:40.322Z,1.00
2022-08-10T13:12:14.257Z,0.95
2022-08-10T13:14:02.414Z,1.35
2022-08-10T13:16:31.839Z,1.00
2022-08-10T13:19:02.040Z,0.90
2022-08-10T13:21:36.027Z,1.00
2022-08-10T13:24:16.287Z,1.00
2022-08-10T13:27:25.857Z,1.35
2022-08-10T13:29:44.012Z,1.08
2022-08-10T13:32:14.347Z,1.10
2022-08-10T13:34:46.536Z,1.15
2022-08-10T13:37:21.372Z,1.10
2022-08-10T13:39:58.187Z,0.90
2022-08-10T13:42:32.582Z,1.10
2022-08-10T13:45:08.800Z,0.95
2022-08-10T13:47:48.598Z,1.10
2022-08-10T13:50:34.539Z,0.90
2022-08-10T13:53:07.713Z,1.10
2022-08-10T13:55:53.763Z,0.80
2022-08-10T13:58:29.425Z,0.90
2022-08-10T14:01:08.211Z,1.10
2022-08-10T14:03:38.853Z,0.90
2022-08-10T14:06:11.449Z,1.00
2022-08-10T14:08:39.448Z,1.00
2022-08-10T14:11:13.538Z,1.00
2022-08-10T14:13:45.664Z,1.00
2022-08-10T14:16:14.138Z,1.60
2022-08-10T14:18:44.893Z,1.00
2022-08-10T14:21:13.739Z,1.00
2022-08-10T14:23:52.337Z,1.00
2022-08-10T14:26:31.185Z,1.13
2022-08-10T14:29:05.322Z,1.00
2022-08-10T14:31:34.936Z,1.00
2022-08-10T14:34:04.450Z,1.00
2022-08-10T14:36:44.880Z,1.00
2022-08-10T14:39:25.437Z,1.00
2022-08-10T14:42:02.843Z,1.05
2022-08-10T14:44:45.114Z,0.80
2022-08-10T14:47:53.244Z,0.70
2022-08-10T14:50:03.497Z,0.90
2022-08-10T14:52:39.474Z,1.00
2022-08-10T14:55:19.039Z,1.20
2022-08-10T14:58:16.955Z,1.15
2022-08-10T15:00:42.788Z,0.80
2022-08-10T15:04:00.768Z,1.17
2022-08-10T15:06:17.251Z,1.00
2022-08-10T15:08:46.862Z,0.90
2022-08-10T15:12:11.931Z,1.00
2022-08-10T15:14:29.332Z,1.20
2022-08-10T15:16:57.932Z,0.90
2022-08-10T15:20:03.002Z,1.10
2022-08-10T15:22:37.027Z,0.80
2022-08-10T15:25:06.804Z,1.00
2022-08-10T15:27:53.877Z,1.00
2022-08-10T15:30:31.726Z,1.00
2022-08-10T15:33:57.398Z,0.90
2022-08-10T15:37:02.148Z,0.70
2022-08-10T15:40:21.433Z,1.00
2022-08-10T15:42:34.179Z,1.10
2022-08-10T15:45:01.991Z,1.00
2022-08-10T15:47:45.633Z,0.80
2022-08-10T15:50:27.942Z,0.95
2022-08-10T15:53:09.978Z,0.80
2022-08-10T15:55:56.781Z,0.85
2022-08-10T15:58:40.447Z,1.00
2022-08-10T16:02:14.322Z,0.90
2022-08-10T16:04:08.966Z,1.00
2022-08-10T16:06:42.867Z,0.90
2022-08-10T16:12:13.369Z,1.40
2022-08-10T16:14:45.292Z,0.90
2022-08-10T16:17:13.524Z,0.90
2022-08-10T16:20:08.050Z,0.80
2022-08-10T16:25:14.148Z,1.05
2022-08-10T16:27:43.023Z,0.98
2022-08-10T16:30:10.317Z,1.00
2022-08-10T16:32:39.672Z,0.93
2022-08-10T16:35:10.278Z,0.75
2022-08-10T16:37:58.179Z,0.90
2022-08-10T16:40:29.475Z,0.90
2022-08-10T16:42:58.678Z,0.80
2022-08-10T16:45:36.778Z,1.00
2022-08-10T16:48:05.745Z,0.80
2022-08-10T16:50:38.640Z,1.05
2022-08-10T16:53:10.049Z,0.90
2022-08-10T16:55:47.628Z,1.00
2022-08-10T16:58:45.757Z,0.88
2022-08-10T17:01:15.340Z,1.10
2022-08-10T17:04:06.623Z,0.90
2022-08-10T17:06:42.095Z,1.30
2022-08-10T17:09:17.077Z,0.90
2022-08-10T17:11:49.138Z,1.00
2022-08-10T17:14:16.508Z,1.00
2022-08-10T17:16:51.302Z,1.00
2022-08-10T17:19:21.685Z,0.80
2022-08-10T17:21:52.748Z,1.08
2022-08-10T17:24:26.771Z,0.90
2022-08-10T17:26:57.884Z,1.20
2022-08-10T17:29:59.225Z,1.00
2022-08-10T17:32:44.064Z,1.05
2022-08-10T17:35:13.777Z,1.00
2022-08-10T17:37:47.549Z,1.42
2022-08-10T17:40:23.453Z,0.98
2022-08-10T17:42:52.290Z,1.00
2022-08-10T17:45:48.439Z,0.82
2022-08-10T17:48:18.634Z,1.20
2022-08-10T17:50:50.340Z,1.00
2022-08-10T17:53:41.997Z,0.98
2022-08-10T17:56:10.667Z,1.10
2022-08-10T17:58:40.989Z,0.95
2022-08-10T18:01:42.130Z,1.10
2022-08-10T18:03:59.379Z,1.00
2022-08-10T18:06:28.455Z,1.05
2022-08-10T18:08:58.847Z,0.77
2022-08-10T18:11:29.015Z,1.00
2022-08-10T18:14:04.740Z,0.90
2022-08-10T18:16:33.964Z,1.10
2022-08-10T18:19:08.037Z,1.10
2022-08-10T18:21:41.391Z,0.95
2022-08-10T18:24:17.710Z,1.08
2022-08-10T18:26:51.737Z,0.90
2022-08-10T18:29:27.149Z,1.00
2022-08-10T18:32:00.533Z,0.90
2022-08-10T18:34:30.163Z,0.82
2022-08-10T18:36:57.590Z,1.05
2022-08-10T18:39:34.027Z,1.00
2022-08-10T18:42:25.706Z,0.80
2022-08-10T18:45:01.034Z,1.20
2022-08-10T18:47:32.976Z,1.00
2022-08-10T18:50:06.103Z,0.88
2022-08-10T18:52:34.767Z,0.90
2022-08-10T18:55:27.123Z,1.10
2022-08-10T18:58:32.696Z,0.80
2022-08-10T19:01:24.693Z,1.00
2022-08-10T19:04:04.491Z,0.90
2022-08-10T19:06:43.708Z,1.10
2022-08-10T19:09:46.275Z,1.08
2022-08-10T19:12:29.941Z,1.08
2022-08-10T19:15:25.739Z,0.82
2022-08-10T19:18:24.430Z,0.95
2022-08-10T19:21:13.002Z,0.90
2022-08-10T19:23:51.843Z,1.00
2022-08-10T19:26:43.723Z,1.00
2022-08-10T19:30:07.953Z,0.90
2022-08-10T19:32:25.133Z,1.13
2022-08-10T19:35:03.908Z,0.98
2022-08-10T19:37:35.371Z,1.08
2022-08-10T19:40:43.519Z,1.00
2022-08-10T19:43:59.955Z,1.00
2022-08-10T19:46:52.435Z,1.17
2022-08-10T19:49:44.244Z,1.10
2022-08-10T19:52:34.174Z,1.20
2022-08-10T19:55:19.201Z,1.13
2022-08-10T19:57:50.603Z,1.38
2022-08-10T20:00:22.828Z,1.10
2022-08-10T20:03:10.785Z,1.20
2022-08-10T20:06:15.338Z,1.10
2022-08-10T20:08:44.486Z,1.00
2022-08-10T20:11:45.503Z,1.10
2022-08-10T20:16:51.685Z,0.90
2022-08-10T20:19:23.139Z,1.20
2022-08-10T20:22:04.600Z,1.20
2022-08-10T20:24:48.300Z,1.20
2022-08-10T20:27:59.961Z,1.13
2022-08-10T20:30:33.228Z,1.05
2022-08-10T20:33:07.769Z,1.10
2022-08-10T20:35:43.534Z,1.13
2022-08-10T20:38:21.154Z,1.10
2022-08-10T20:41:02.913Z,1.25
2022-08-10T20:43:52.814Z,1.27
2022-08-10T20:46:32.046Z,1.33
2022-08-10T20:49:08.264Z,1.35
2022-08-10T20:51:59.020Z,1.10
2022-08-10T20:54:41.443Z,1.48
2022-08-10T20:57:54.922Z,1.20
2022-08-10T21:00:23.095Z,1.27
2022-08-10T21:03:43.878Z,1.20
2022-08-10T21:06:45.867Z,1.40
2022-08-10T21:09:50.615Z,1.15
2022-08-10T21:12:44.250Z,1.52
2022-08-10T21:15:31.456Z,1.20
2022-08-10T21:18:44.953Z,1.50
2022-08-10T21:21:41.902Z,1.40
2022-08-10T21:25:41.793Z,1.23
2022-08-10T21:27:40.226Z,2.10
2022-08-10T21:30:17.559Z,1.23
2022-08-10T21:32:56.100Z,1.10
2022-08-10T21:35:37.041Z,1.20
2022-08-10T21:38:26.419Z,1.13
2022-08-10T21:41:18.052Z,1.48
2022-08-10T21:44:05.432Z,1.23
2022-08-10T21:47:01.639Z,1.40
2022-08-10T21:50:10.560Z,1.13
2022-08-10T21:53:00.863Z,2.97
2022-08-10T21:56:16.470Z,1.40
2022-08-10T21:59:18.598Z,1.38
2022-08-10T22:02:11.766Z,1.25
2022-08-10T22:04:58.188Z,1.40
2022-08-10T22:07:48.080Z,1.00
2022-08-10T22:10:39.182Z,1.20
2022-08-10T22:13:26.012Z,1.48
2022-08-10T22:16:15.472Z,1.30
2022-08-10T22:19:04.367Z,1.20
2022-08-10T22:22:28.062Z,1.40
2022-08-10T22:25:20.875Z,1.30
2022-08-10T22:31:28.961Z,1.40
2022-08-10T22:34:55.045Z,1.45
2022-08-10T22:37:57.378Z,1.20
2022-08-10T22:40:44.065Z,1.20
2022-08-10T22:43:41.469Z,1.30
2022-08-10T22:46:47.415Z,1.30
2022-08-10T22:49:22.113Z,1.35
2022-08-10T22:51:54.349Z,1.20
2022-08-10T22:54:45.868Z,1.30
2022-08-10T22:57:34.305Z,1.50
2022-08-10T23:00:31.049Z,1.30
2022-08-10T23:03:21.530Z,1.35
2022-08-10T23:06:14.599Z,1.20
2022-08-10T23:08:46.952Z,1.33
2022-08-10T23:11:36.469Z,1.30
2022-08-10T23:14:09.663Z,1.30
2022-08-10T23:17:05.970Z,1.50
2022-08-10T23:19:45.715Z,1.00
2022-08-10T23:22:15.550Z,1.50
2022-08-10T23:24:53.199Z,1.50
2022-08-10T23:27:37.901Z,1.23
2022-08-10T23:30:16.978Z,1.10
2022-08-10T23:32:59.140Z,1.20
2022-08-10T23:36:27.175Z,1.40
2022-08-10T23:38:20.567Z,1.52
2022-08-10T23:40:49.657Z,1.30
2022-08-10T23:43:40.783Z,1.52
2022-08-10T23:46:13.958Z,1.40
2022-08-10T23:48:47.022Z,1.50
2022-08-10T23:51:17.385Z,1.63
2022-08-10T23:53:47.154Z,1.60
2022-08-10T23:56:19.832Z,1.30
2022-08-10T23:58:55.211Z,1.40
